sensor_id;sensor_type;location;lat;lon;timestamp;P1;durP1;ratioP1;P2;durP2;ratioP2
24619;SDS011;12763;55.802;37.404;2023-07-13T00:00:36;6.53;;;3.80;;
24619;SDS011;12763;55.802;37.404;2023-07-13T00:03:02;8.90;;;3.78;;
24619;SDS011;12763;55.802;37.404;2023-07-13T00:05:29;5.40;;;3.10;;
24619;SDS011;12763;55.802;37.404;2023-07-13T00:07:55;8.18;;;3.75;;
24619;SDS011;12763;55.802;37.404;2023-07-13T00:10:21;5.85;;;3.53;;
24619;SDS011;12763;55.802;37.404;2023-07-13T00:12:47;6.18;;;3.78;;
24619;SDS011;12763;55.802;37.404;2023-07-13T00:15:15;7.65;;;3.42;;
24619;SDS011;12763;55.802;37.404;2023-07-13T00:17:51;7.63;;;3.77;;
24619;SDS011;12763;55.802;37.404;2023-07-13T00:20:24;7.50;;;3.42;;
24619;SDS011;12763;55.802;37.404;2023-07-13T00:22:53;8.75;;;4.10;;
24619;SDS011;12763;55.802;37.404;2023-07-13T00:25:19;9.30;;;3.60;;
24619;SDS011;12763;55.802;37.404;2023-07-13T00:27:46;5.47;;;3.72;;
24619;SDS011;12763;55.802;37.404;2023-07-13T00:30:17;7.45;;;3.65;;
24619;SDS011;12763;55.802;37.404;2023-07-13T00:32:44;6.45;;;3.80;;
24619;SDS011;12763;55.802;37.404;2023-07-13T00:35:10;5.78;;;3.53;;
24619;SDS011;12763;55.802;37.404;2023-07-13T00:37:36;4.13;;;3.00;;
24619;SDS011;12763;55.802;37.404;2023-07-13T00:40:03;4.93;;;3.00;;
24619;SDS011;12763;55.802;37.404;2023-07-13T00:42:30;11.82;;;4.07;;
24619;SDS011;12763;55.802;37.404;2023-07-13T00:47:37;5.82;;;3.42;;
24619;SDS011;12763;55.802;37.404;2023-07-13T00:50:03;4.60;;;3.38;;
24619;SDS011;12763;55.802;37.404;2023-07-13T00:52:31;7.40;;;3.15;;
24619;SDS011;12763;55.802;37.404;2023-07-13T00:54:58;4.57;;;3.25;;
24619;SDS011;12763;55.802;37.404;2023-07-13T00:57:24;4.95;;;3.05;;
24619;SDS011;12763;55.802;37.404;2023-07-13T00:59:52;6.95;;;3.83;;
24619;SDS011;12763;55.802;37.404;2023-07-13T01:02:21;6.78;;;3.35;;
24619;SDS011;12763;55.802;37.404;2023-07-13T01:04:48;6.47;;;3.35;;
24619;SDS011;12763;55.802;37.404;2023-07-13T01:07:15;5.60;;;3.10;;
24619;SDS011;12763;55.802;37.404;2023-07-13T01:09:41;5.20;;;3.08;;
24619;SDS011;12763;55.802;37.404;2023-07-13T01:12:07;4.45;;;3.05;;
24619;SDS011;12763;55.802;37.404;2023-07-13T01:14:34;6.95;;;3.05;;
24619;SDS011;12763;55.802;37.404;2023-07-13T01:16:59;4.85;;;3.30;;
24619;SDS011;12763;55.802;37.404;2023-07-13T01:19:32;6.25;;;3.20;;
24619;SDS011;12763;55.802;37.404;2023-07-13T01:22:02;6.55;;;3.30;;
24619;SDS011;12763;55.802;37.404;2023-07-13T01:24:29;6.90;;;3.38;;
24619;SDS011;12763;55.802;37.404;2023-07-13T01:26:55;5.20;;;3.40;;
24619;SDS011;12763;55.802;37.404;2023-07-13T01:29:21;5.50;;;3.33;;
24619;SDS011;12763;55.802;37.404;2023-07-13T01:31:47;5.13;;;3.45;;
24619;SDS011;12763;55.802;37.404;2023-07-13T01:34:13;5.78;;;3.60;;
24619;SDS011;12763;55.802;37.404;2023-07-13T01:36:38;7.63;;;2.90;;
24619;SDS011;12763;55.802;37.404;2023-07-13T01:39:05;11.25;;;3.75;;
24619;SDS011;12763;55.802;37.404;2023-07-13T01:41:31;5.45;;;3.22;;
24619;SDS011;12763;55.802;37.404;2023-07-13T01:43:56;5.47;;;3.50;;
24619;SDS011;12763;55.802;37.404;2023-07-13T01:46:22;7.47;;;3.42;;
24619;SDS011;12763;55.802;37.404;2023-07-13T01:48:49;7.03;;;3.20;;
24619;SDS011;12763;55.802;37.404;2023-07-13T01:51:16;7.13;;;3.25;;
24619;SDS011;12763;55.802;37.404;2023-07-13T01:53:44;5.40;;;3.67;;
24619;SDS011;12763;55.802;37.404;2023-07-13T01:56:11;6.18;;;3.70;;
24619;SDS011;12763;55.802;37.404;2023-07-13T01:58:37;5.40;;;3.63;;
24619;SDS011;12763;55.802;37.404;2023-07-13T02:01:03;7.35;;;3.17;;
24619;SDS011;12763;55.802;37.404;2023-07-13T02:03:29;6.18;;;3.42;;
24619;SDS011;12763;55.802;37.404;2023-07-13T02:05:56;8.05;;;3.92;;
24619;SDS011;12763;55.802;37.404;2023-07-13T02:08:22;6.50;;;3.83;;
24619;SDS011;12763;55.802;37.404;2023-07-13T02:10:47;5.38;;;3.55;;
24619;SDS011;12763;55.802;37.404;2023-07-13T02:13:13;6.90;;;3.67;;
24619;SDS011;12763;55.802;37.404;2023-07-13T02:15:39;5.05;;;3.47;;
24619;SDS011;12763;55.802;37.404;2023-07-13T02:18:08;9.00;;;3.70;;
24619;SDS011;12763;55.802;37.404;2023-07-13T02:20:54;5.72;;;3.40;;
24619;SDS011;12763;55.802;37.404;2023-07-13T02:23:20;8.23;;;3.83;;
24619;SDS011;12763;55.802;37.404;2023-07-13T02:25:46;7.65;;;3.13;;
24619;SDS011;12763;55.802;37.404;2023-07-13T02:28:12;5.82;;;3.42;;
24619;SDS011;12763;55.802;37.404;2023-07-13T02:30:38;5.40;;;3.47;;
24619;SDS011;12763;55.802;37.404;2023-07-13T02:33:04;6.78;;;3.45;;
24619;SDS011;12763;55.802;37.404;2023-07-13T02:35:30;7.18;;;3.55;;
24619;SDS011;12763;55.802;37.404;2023-07-13T02:37:58;6.35;;;3.33;;
24619;SDS011;12763;55.802;37.404;2023-07-13T02:40:24;9.32;;;4.05;;
24619;SDS011;12763;55.802;37.404;2023-07-13T02:42:51;6.40;;;3.65;;
24619;SDS011;12763;55.802;37.404;2023-07-13T02:45:17;5.93;;;3.80;;
24619;SDS011;12763;55.802;37.404;2023-07-13T02:47:43;5.97;;;3.40;;
24619;SDS011;12763;55.802;37.404;2023-07-13T02:50:10;8.68;;;3.50;;
24619;SDS011;12763;55.802;37.404;2023-07-13T02:52:36;6.30;;;3.22;;
24619;SDS011;12763;55.802;37.404;2023-07-13T02:55:02;7.10;;;4.15;;
24619;SDS011;12763;55.802;37.404;2023-07-13T02:57:29;5.25;;;3.40;;
24619;SDS011;12763;55.802;37.404;2023-07-13T02:59:58;8.35;;;3.38;;
24619;SDS011;12763;55.802;37.404;2023-07-13T03:02:24;13.65;;;4.03;;
24619;SDS011;12763;55.802;37.404;2023-07-13T03:04:54;5.00;;;3.35;;
24619;SDS011;12763;55.802;37.404;2023-07-13T03:07:21;4.32;;;3.22;;
24619;SDS011;12763;55.802;37.404;2023-07-13T03:09:49;5.47;;;3.22;;
24619;SDS011;12763;55.802;37.404;2023-07-13T03:12:21;9.57;;;3.25;;
24619;SDS011;12763;55.802;37.404;2023-07-13T03:14:47;4.82;;;3.60;;
24619;SDS011;12763;55.802;37.404;2023-07-13T03:17:13;6.57;;;3.92;;
24619;SDS011;12763;55.802;37.404;2023-07-13T03:19:40;4.82;;;3.05;;
24619;SDS011;12763;55.802;37.404;2023-07-13T03:22:06;9.55;;;3.75;;
24619;SDS011;12763;55.802;37.404;2023-07-13T03:24:34;6.00;;;3.47;;
24619;SDS011;12763;55.802;37.404;2023-07-13T03:27:03;6.05;;;3.22;;
24619;SDS011;12763;55.802;37.404;2023-07-13T03:29:31;7.50;;;3.60;;
24619;SDS011;12763;55.802;37.404;2023-07-13T03:31:57;9.88;;;3.90;;
24619;SDS011;12763;55.802;37.404;2023-07-13T03:34:23;6.72;;;4.07;;
24619;SDS011;12763;55.802;37.404;2023-07-13T03:36:49;7.68;;;3.20;;
24619;SDS011;12763;55.802;37.404;2023-07-13T03:39:15;5.88;;;3.03;;
24619;SDS011;12763;55.802;37.404;2023-07-13T03:41:52;7.13;;;3.78;;
24619;SDS011;12763;55.802;37.404;2023-07-13T03:44:18;4.90;;;2.92;;
24619;SDS011;12763;55.802;37.404;2023-07-13T03:46:48;8.27;;;3.22;;
24619;SDS011;12763;55.802;37.404;2023-07-13T03:49:14;9.70;;;3.22;;
24619;SDS011;12763;55.802;37.404;2023-07-13T03:51:40;4.60;;;3.10;;
24619;SDS011;12763;55.802;37.404;2023-07-13T03:54:05;7.47;;;3.20;;
24619;SDS011;12763;55.802;37.404;2023-07-13T03:56:31;5.50;;;3.17;;
24619;SDS011;12763;55.802;37.404;2023-07-13T03:59:00;4.95;;;3.10;;
24619;SDS011;12763;55.802;37.404;2023-07-13T04:01:29;5.15;;;3.17;;
24619;SDS011;12763;55.802;37.404;2023-07-13T04:03:55;5.50;;;3.03;;
24619;SDS011;12763;55.802;37.404;2023-07-13T04:06:25;8.60;;;3.58;;
24619;SDS011;12763;55.802;37.404;2023-07-13T04:08:53;6.95;;;3.40;;
24619;SDS011;12763;55.802;37.404;2023-07-13T04:11:22;7.35;;;3.33;;
24619;SDS011;12763;55.802;37.404;2023-07-13T04:13:50;5.15;;;2.92;;
24619;SDS011;12763;55.802;37.404;2023-07-13T04:16:17;4.78;;;3.28;;
24619;SDS011;12763;55.802;37.404;2023-07-13T04:18:44;4.15;;;3.00;;
24619;SDS011;12763;55.802;37.404;2023-07-13T04:21:11;5.32;;;3.30;;
24619;SDS011;12763;55.802;37.404;2023-07-13T04:23:38;8.40;;;3.30;;
24619;SDS011;12763;55.802;37.404;2023-07-13T04:26:05;10.38;;;3.15;;
24619;SDS011;12763;55.802;37.404;2023-07-13T04:28:32;4.90;;;3.22;;
24619;SDS011;12763;55.802;37.404;2023-07-13T04:30:58;9.45;;;3.67;;
24619;SDS011;12763;55.802;37.404;2023-07-13T04:33:25;10.23;;;3.33;;
24619;SDS011;12763;55.802;37.404;2023-07-13T04:35:52;6.40;;;3.30;;
24619;SDS011;12763;55.802;37.404;2023-07-13T04:38:23;7.45;;;2.97;;
24619;SDS011;12763;55.802;37.404;2023-07-13T04:40:50;4.43;;;3.00;;
24619;SDS011;12763;55.802;37.404;2023-07-13T04:43:17;6.25;;;2.78;;
24619;SDS011;12763;55.802;37.404;2023-07-13T04:45:43;3.55;;;3.00;;
24619;SDS011;12763;55.802;37.404;2023-07-13T04:48:09;3.63;;;2.80;;
24619;SDS011;12763;55.802;37.404;2023-07-13T04:50:38;8.00;;;2.95;;
24619;SDS011;12763;55.802;37.404;2023-07-13T04:53:04;6.30;;;2.92;;
24619;SDS011;12763;55.802;37.404;2023-07-13T04:55:30;4.25;;;2.90;;
24619;SDS011;12763;55.802;37.404;2023-07-13T04:57:57;9.68;;;2.85;;
24619;SDS011;12763;55.802;37.404;2023-07-13T05:00:26;4.28;;;2.70;;
24619;SDS011;12763;55.802;37.404;2023-07-13T05:02:53;7.90;;;2.85;;
24619;SDS011;12763;55.802;37.404;2023-07-13T05:05:20;5.93;;;3.35;;
24619;SDS011;12763;55.802;37.404;2023-07-13T05:07:46;5.70;;;3.03;;
24619;SDS011;12763;55.802;37.404;2023-07-13T05:10:12;5.18;;;2.90;;
24619;SDS011;12763;55.802;37.404;2023-07-13T05:12:38;6.20;;;3.25;;
24619;SDS011;12763;55.802;37.404;2023-07-13T05:15:04;8.57;;;3.00;;
24619;SDS011;12763;55.802;37.404;2023-07-13T05:17:31;5.72;;;2.80;;
24619;SDS011;12763;55.802;37.404;2023-07-13T05:19:57;3.95;;;2.50;;
24619;SDS011;12763;55.802;37.404;2023-07-13T05:22:23;6.47;;;3.80;;
24619;SDS011;12763;55.802;37.404;2023-07-13T05:24:49;3.67;;;2.28;;
24619;SDS011;12763;55.802;37.404;2023-07-13T05:27:15;6.07;;;2.95;;
24619;SDS011;12763;55.802;37.404;2023-07-13T05:29:40;9.90;;;3.20;;
24619;SDS011;12763;55.802;37.404;2023-07-13T05:32:06;4.88;;;3.05;;
24619;SDS011;12763;55.802;37.404;2023-07-13T05:34:32;7.45;;;3.13;;
24619;SDS011;12763;55.802;37.404;2023-07-13T05:36:58;6.18;;;2.80;;
24619;SDS011;12763;55.802;37.404;2023-07-13T05:39:24;5.70;;;3.05;;
24619;SDS011;12763;55.802;37.404;2023-07-13T05:41:51;3.63;;;2.60;;
24619;SDS011;12763;55.802;37.404;2023-07-13T05:44:17;6.75;;;3.05;;
24619;SDS011;12763;55.802;37.404;2023-07-13T05:46:44;5.13;;;2.30;;
24619;SDS011;12763;55.802;37.404;2023-07-13T05:49:10;5.80;;;3.35;;
24619;SDS011;12763;55.802;37.404;2023-07-13T05:51:36;6.93;;;3.00;;
24619;SDS011;12763;55.802;37.404;2023-07-13T05:54:02;10.40;;;2.85;;
24619;SDS011;12763;55.802;37.404;2023-07-13T05:56:28;8.30;;;2.65;;
24619;SDS011;12763;55.802;37.404;2023-07-13T05:58:54;4.43;;;3.13;;
24619;SDS011;12763;55.802;37.404;2023-07-13T06:01:21;7.47;;;2.90;;
24619;SDS011;12763;55.802;37.404;2023-07-13T06:03:49;8.20;;;2.70;;
24619;SDS011;12763;55.802;37.404;2023-07-13T06:06:15;5.00;;;2.67;;
24619;SDS011;12763;55.802;37.404;2023-07-13T06:08:41;3.17;;;2.30;;
24619;SDS011;12763;55.802;37.404;2023-07-13T06:11:10;11.65;;;3.00;;
24619;SDS011;12763;55.802;37.404;2023-07-13T06:13:41;12.35;;;3.30;;
24619;SDS011;12763;55.802;37.404;2023-07-13T06:16:07;7.18;;;2.45;;
24619;SDS011;12763;55.802;37.404;2023-07-13T06:18:34;5.95;;;2.03;;
24619;SDS011;12763;55.802;37.404;2023-07-13T06:21:12;5.95;;;2.55;;
24619;SDS011;12763;55.802;37.404;2023-07-13T06:23:40;5.57;;;2.47;;
24619;SDS011;12763;55.802;37.404;2023-07-13T06:26:06;5.95;;;2.58;;
24619;SDS011;12763;55.802;37.404;2023-07-13T06:28:33;9.00;;;2.90;;
24619;SDS011;12763;55.802;37.404;2023-07-13T06:30:59;5.40;;;2.42;;
24619;SDS011;12763;55.802;37.404;2023-07-13T06:33:26;2.78;;;2.28;;
24619;SDS011;12763;55.802;37.404;2023-07-13T06:35:52;6.10;;;2.97;;
24619;SDS011;12763;55.802;37.404;2023-07-13T06:38:20;4.72;;;2.63;;
24619;SDS011;12763;55.802;37.404;2023-07-13T06:40:46;2.80;;;2.25;;
24619;SDS011;12763;55.802;37.404;2023-07-13T06:43:12;5.80;;;2.33;;
24619;SDS011;12763;55.802;37.404;2023-07-13T06:45:41;5.38;;;2.83;;
24619;SDS011;12763;55.802;37.404;2023-07-13T06:48:11;4.65;;;2.22;;
24619;SDS011;12763;55.802;37.404;2023-07-13T06:50:37;7.03;;;2.45;;
24619;SDS011;12763;55.802;37.404;2023-07-13T06:53:03;7.97;;;3.15;;
24619;SDS011;12763;55.802;37.404;2023-07-13T06:55:28;5.43;;;2.50;;
24619;SDS011;12763;55.802;37.404;2023-07-13T06:57:54;7.40;;;2.65;;
24619;SDS011;12763;55.802;37.404;2023-07-13T07:00:20;9.15;;;2.88;;
24619;SDS011;12763;55.802;37.404;2023-07-13T07:02:46;6.68;;;2.40;;
24619;SDS011;12763;55.802;37.404;2023-07-13T07:05:12;6.95;;;2.75;;
24619;SDS011;12763;55.802;37.404;2023-07-13T07:07:38;4.07;;;2.20;;
24619;SDS011;12763;55.802;37.404;2023-07-13T07:10:04;5.03;;;2.15;;
24619;SDS011;12763;55.802;37.404;2023-07-13T07:12:30;3.85;;;2.55;;
24619;SDS011;12763;55.802;37.404;2023-07-13T07:14:56;7.25;;;2.78;;
24619;SDS011;12763;55.802;37.404;2023-07-13T07:17:22;6.30;;;3.17;;
24619;SDS011;12763;55.802;37.404;2023-07-13T07:19:48;7.38;;;3.13;;
24619;SDS011;12763;55.802;37.404;2023-07-13T07:22:14;6.03;;;2.65;;
24619;SDS011;12763;55.802;37.404;2023-07-13T07:24:40;7.80;;;2.55;;
24619;SDS011;12763;55.802;37.404;2023-07-13T07:27:06;11.85;;;3.30;;
24619;SDS011;12763;55.802;37.404;2023-07-13T07:29:32;5.15;;;2.78;;
24619;SDS011;12763;55.802;37.404;2023-07-13T07:31:59;6.95;;;3.00;;
24619;SDS011;12763;55.802;37.404;2023-07-13T07:34:25;4.90;;;2.90;;
24619;SDS011;12763;55.802;37.404;2023-07-13T07:36:53;5.15;;;3.03;;
24619;SDS011;12763;55.802;37.404;2023-07-13T07:39:19;7.55;;;3.13;;
24619;SDS011;12763;55.802;37.404;2023-07-13T07:41:45;7.78;;;3.22;;
24619;SDS011;12763;55.802;37.404;2023-07-13T07:44:11;6.75;;;2.78;;
24619;SDS011;12763;55.802;37.404;2023-07-13T07:46:36;5.05;;;2.88;;
24619;SDS011;12763;55.802;37.404;2023-07-13T07:49:06;5.95;;;3.58;;
24619;SDS011;12763;55.802;37.404;2023-07-13T07:51:32;5.93;;;3.40;;
24619;SDS011;12763;55.802;37.404;2023-07-13T07:53:58;10.18;;;3.28;;
24619;SDS011;12763;55.802;37.404;2023-07-13T07:56:24;6.53;;;2.70;;
24619;SDS011;12763;55.802;37.404;2023-07-13T07:58:49;7.07;;;2.67;;
24619;SDS011;12763;55.802;37.404;2023-07-13T08:01:15;5.38;;;2.38;;
24619;SDS011;12763;55.802;37.404;2023-07-13T08:03:41;3.42;;;2.40;;
24619;SDS011;12763;55.802;37.404;2023-07-13T08:06:07;5.40;;;2.47;;
24619;SDS011;12763;55.802;37.404;2023-07-13T08:08:34;4.10;;;2.40;;
24619;SDS011;12763;55.802;37.404;2023-07-13T08:11:03;2.90;;;2.10;;
24619;SDS011;12763;55.802;37.404;2023-07-13T08:13:33;7.47;;;3.13;;
24619;SDS011;12763;55.802;37.404;2023-07-13T08:15:59;4.30;;;2.50;;
24619;SDS011;12763;55.802;37.404;2023-07-13T08:18:26;6.43;;;2.78;;
24619;SDS011;12763;55.802;37.404;2023-07-13T08:20:53;3.83;;;2.83;;
24619;SDS011;12763;55.802;37.404;2023-07-13T08:23:21;5.10;;;2.47;;
24619;SDS011;12763;55.802;37.404;2023-07-13T08:25:54;7.60;;;2.60;;
24619;SDS011;12763;55.802;37.404;2023-07-13T08:28:21;4.90;;;2.85;;
24619;SDS011;12763;55.802;37.404;2023-07-13T08:30:48;4.90;;;2.50;;
24619;SDS011;12763;55.802;37.404;2023-07-13T08:33:18;4.82;;;2.95;;
24619;SDS011;12763;55.802;37.404;2023-07-13T08:35:46;9.02;;;3.00;;
24619;SDS011;12763;55.802;37.404;2023-07-13T08:38:15;5.15;;;2.80;;
24619;SDS011;12763;55.802;37.404;2023-07-13T08:40:42;3.75;;;2.53;;
24619;SDS011;12763;55.802;37.404;2023-07-13T08:43:18;9.07;;;2.80;;
24619;SDS011;12763;55.802;37.404;2023-07-13T08:45:50;5.55;;;2.65;;
24619;SDS011;12763;55.802;37.404;2023-07-13T08:50:56;8.38;;;2.85;;
24619;SDS011;12763;55.802;37.404;2023-07-13T08:53:36;8.63;;;3.25;;
24619;SDS011;12763;55.802;37.404;2023-07-13T08:56:11;4.05;;;2.72;;
24619;SDS011;12763;55.802;37.404;2023-07-13T08:58:44;9.07;;;3.72;;
24619;SDS011;12763;55.802;37.404;2023-07-13T09:01:20;9.25;;;3.33;;
24619;SDS011;12763;55.802;37.404;2023-07-13T09:03:57;6.75;;;3.35;;
24619;SDS011;12763;55.802;37.404;2023-07-13T09:06:33;4.93;;;3.53;;
24619;SDS011;12763;55.802;37.404;2023-07-13T09:09:10;8.00;;;3.40;;
24619;SDS011;12763;55.802;37.404;2023-07-13T09:12:09;7.78;;;3.17;;
24619;SDS011;12763;55.802;37.404;2023-07-13T09:14:48;5.32;;;3.15;;
24619;SDS011;12763;55.802;37.404;2023-07-13T09:17:29;7.07;;;3.38;;
24619;SDS011;12763;55.802;37.404;2023-07-13T09:22:54;9.88;;;3.50;;
24619;SDS011;12763;55.802;37.404;2023-07-13T09:27:57;7.10;;;3.45;;
24619;SDS011;12763;55.802;37.404;2023-07-13T09:33:04;7.60;;;3.67;;
24619;SDS011;12763;55.802;37.404;2023-07-13T09:35:30;7.03;;;3.53;;
24619;SDS011;12763;55.802;37.404;2023-07-13T09:37:57;7.97;;;3.85;;
24619;SDS011;12763;55.802;37.404;2023-07-13T09:43:36;11.15;;;3.80;;
24619;SDS011;12763;55.802;37.404;2023-07-13T09:46:02;3.90;;;3.45;;
24619;SDS011;12763;55.802;37.404;2023-07-13T09:48:36;9.70;;;4.03;;
24619;SDS011;12763;55.802;37.404;2023-07-13T09:51:14;9.23;;;3.60;;
24619;SDS011;12763;55.802;37.404;2023-07-13T09:53:41;8.80;;;4.05;;
24619;SDS011;12763;55.802;37.404;2023-07-13T09:56:24;7.15;;;4.13;;
24619;SDS011;12763;55.802;37.404;2023-07-13T09:58:53;9.20;;;3.80;;
24619;SDS011;12763;55.802;37.404;2023-07-13T10:01:33;11.38;;;3.53;;
24619;SDS011;12763;55.802;37.404;2023-07-13T10:04:00;7.60;;;4.10;;
24619;SDS011;12763;55.802;37.404;2023-07-13T10:06:27;9.90;;;4.43;;
24619;SDS011;12763;55.802;37.404;2023-07-13T10:08:53;8.57;;;3.90;;
24619;SDS011;12763;55.802;37.404;2023-07-13T10:11:27;4.30;;;3.50;;
24619;SDS011;12763;55.802;37.404;2023-07-13T10:14:15;8.63;;;3.70;;
24619;SDS011;12763;55.802;37.404;2023-07-13T10:16:44;9.43;;;3.75;;
24619;SDS011;12763;55.802;37.404;2023-07-13T10:19:25;5.57;;;3.35;;
24619;SDS011;12763;55.802;37.404;2023-07-13T10:21:57;10.15;;;4.00;;
24619;SDS011;12763;55.802;37.404;2023-07-13T10:24:26;5.30;;;4.00;;
24619;SDS011;12763;55.802;37.404;2023-07-13T10:27:00;6.85;;;3.88;;
24619;SDS011;12763;55.802;37.404;2023-07-13T10:29:32;6.40;;;3.05;;
24619;SDS011;12763;55.802;37.404;2023-07-13T10:32:03;5.85;;;3.83;;
24619;SDS011;12763;55.802;37.404;2023-07-13T10:34:36;7.05;;;3.00;;
24619;SDS011;12763;55.802;37.404;2023-07-13T10:37:01;6.47;;;3.50;;
24619;SDS011;12763;55.802;37.404;2023-07-13T10:39:28;9.65;;;3.38;;
24619;SDS011;12763;55.802;37.404;2023-07-13T10:42:05;9.20;;;3.67;;
24619;SDS011;12763;55.802;37.404;2023-07-13T10:44:37;6.13;;;3.75;;
24619;SDS011;12763;55.802;37.404;2023-07-13T10:47:04;8.45;;;3.58;;
24619;SDS011;12763;55.802;37.404;2023-07-13T10:49:34;5.45;;;3.80;;
24619;SDS011;12763;55.802;37.404;2023-07-13T10:52:02;5.18;;;3.80;;
24619;SDS011;12763;55.802;37.404;2023-07-13T10:57:08;10.30;;;3.65;;
24619;SDS011;12763;55.802;37.404;2023-07-13T10:59:46;7.68;;;3.72;;
24619;SDS011;12763;55.802;37.404;2023-07-13T11:02:35;4.85;;;3.25;;
24619;SDS011;12763;55.802;37.404;2023-07-13T11:05:12;5.28;;;3.33;;
24619;SDS011;12763;55.802;37.404;2023-07-13T11:08:03;4.10;;;2.90;;
24619;SDS011;12763;55.802;37.404;2023-07-13T11:10:48;6.32;;;3.90;;
24619;SDS011;12763;55.802;37.404;2023-07-13T11:13:59;8.48;;;3.78;;
24619;SDS011;12763;55.802;37.404;2023-07-13T11:21:20;6.28;;;3.47;;
24619;SDS011;12763;55.802;37.404;2023-07-13T11:31:43;7.63;;;3.80;;
24619;SDS011;12763;55.802;37.404;2023-07-13T11:34:18;8.15;;;3.38;;
24619;SDS011;12763;55.802;37.404;2023-07-13T11:36:54;6.22;;;3.40;;
24619;SDS011;12763;55.802;37.404;2023-07-13T11:39:24;9.90;;;3.75;;
24619;SDS011;12763;55.802;37.404;2023-07-13T11:41:55;6.85;;;3.95;;
24619;SDS011;12763;55.802;37.404;2023-07-13T11:44:24;7.53;;;4.00;;
24619;SDS011;12763;55.802;37.404;2023-07-13T11:46:55;6.97;;;3.83;;
24619;SDS011;12763;55.802;37.404;2023-07-13T11:49:26;8.13;;;3.80;;
24619;SDS011;12763;55.802;37.404;2023-07-13T11:51:55;6.55;;;3.55;;
24619;SDS011;12763;55.802;37.404;2023-07-13T11:57:16;6.30;;;4.10;;
24619;SDS011;12763;55.802;37.404;2023-07-13T12:00:03;6.32;;;3.75;;
24619;SDS011;12763;55.802;37.404;2023-07-13T12:02:37;16.13;;;4.18;;
24619;SDS011;12763;55.802;37.404;2023-07-13T12:05:09;4.85;;;3.08;;
24619;SDS011;12763;55.802;37.404;2023-07-13T12:07:38;4.25;;;2.83;;
24619;SDS011;12763;55.802;37.404;2023-07-13T12:10:16;7.28;;;3.63;;
24619;SDS011;12763;55.802;37.404;2023-07-13T12:12:51;7.43;;;4.68;;
24619;SDS011;12763;55.802;37.404;2023-07-13T12:18:18;5.90;;;3.80;;
24619;SDS011;12763;55.802;37.404;2023-07-13T12:20:46;7.68;;;3.58;;
24619;SDS011;12763;55.802;37.404;2023-07-13T12:23:22;7.25;;;3.90;;
24619;SDS011;12763;55.802;37.404;2023-07-13T12:25:50;6.72;;;3.95;;
24619;SDS011;12763;55.802;37.404;2023-07-13T12:31:03;5.18;;;3.88;;
24619;SDS011;12763;55.802;37.404;2023-07-13T12:33:31;6.80;;;4.10;;
24619;SDS011;12763;55.802;37.404;2023-07-13T12:36:02;9.63;;;4.95;;
24619;SDS011;12763;55.802;37.404;2023-07-13T12:38:31;8.65;;;3.95;;
24619;SDS011;12763;55.802;37.404;2023-07-13T12:40:58;6.03;;;3.58;;
24619;SDS011;12763;55.802;37.404;2023-07-13T12:43:24;7.35;;;3.42;;
24619;SDS011;12763;55.802;37.404;2023-07-13T12:48:26;5.65;;;3.47;;
24619;SDS011;12763;55.802;37.404;2023-07-13T12:50:54;7.80;;;4.30;;
24619;SDS011;12763;55.802;37.404;2023-07-13T12:53:28;4.78;;;3.50;;
24619;SDS011;12763;55.802;37.404;2023-07-13T12:55:57;9.80;;;3.42;;
24619;SDS011;12763;55.802;37.404;2023-07-13T12:58:27;9.05;;;4.40;;
24619;SDS011;12763;55.802;37.404;2023-07-13T13:01:05;7.88;;;3.72;;
24619;SDS011;12763;55.802;37.404;2023-07-13T13:03:35;7.03;;;4.35;;
24619;SDS011;12763;55.802;37.404;2023-07-13T13:06:04;7.30;;;4.05;;
24619;SDS011;12763;55.802;37.404;2023-07-13T13:08:35;7.22;;;3.90;;
24619;SDS011;12763;55.802;37.404;2023-07-13T13:11:02;5.35;;;2.97;;
24619;SDS011;12763;55.802;37.404;2023-07-13T13:13:28;5.18;;;3.60;;
24619;SDS011;12763;55.802;37.404;2023-07-13T13:15:54;8.70;;;3.80;;
24619;SDS011;12763;55.802;37.404;2023-07-13T13:18:21;6.18;;;3.13;;
24619;SDS011;12763;55.802;37.404;2023-07-13T13:20:48;6.85;;;4.28;;
24619;SDS011;12763;55.802;37.404;2023-07-13T13:23:17;6.28;;;3.85;;
24619;SDS011;12763;55.802;37.404;2023-07-13T13:25:47;6.57;;;4.03;;
24619;SDS011;12763;55.802;37.404;2023-07-13T13:28:18;9.38;;;3.63;;
24619;SDS011;12763;55.802;37.404;2023-07-13T13:30:46;9.35;;;3.92;;
24619;SDS011;12763;55.802;37.404;2023-07-13T13:33:15;6.18;;;3.88;;
24619;SDS011;12763;55.802;37.404;2023-07-13T13:35:43;5.30;;;3.55;;
24619;SDS011;12763;55.802;37.404;2023-07-13T13:38:13;5.18;;;3.97;;
24619;SDS011;12763;55.802;37.404;2023-07-13T13:40:44;7.25;;;3.72;;
24619;SDS011;12763;55.802;37.404;2023-07-13T13:43:14;9.82;;;4.47;;
24619;SDS011;12763;55.802;37.404;2023-07-13T13:45:44;6.13;;;4.15;;
24619;SDS011;12763;55.802;37.404;2023-07-13T13:48:15;6.78;;;3.50;;
24619;SDS011;12763;55.802;37.404;2023-07-13T13:50:43;5.90;;;3.17;;
24619;SDS011;12763;55.802;37.404;2023-07-13T13:53:10;5.50;;;3.40;;
24619;SDS011;12763;55.802;37.404;2023-07-13T13:55:37;7.35;;;3.72;;
24619;SDS011;12763;55.802;37.404;2023-07-13T13:58:04;7.13;;;3.38;;
24619;SDS011;12763;55.802;37.404;2023-07-13T14:00:29;7.90;;;4.00;;
24619;SDS011;12763;55.802;37.404;2023-07-13T14:02:55;8.43;;;3.88;;
24619;SDS011;12763;55.802;37.404;2023-07-13T14:05:23;7.88;;;3.90;;
24619;SDS011;12763;55.802;37.404;2023-07-13T14:07:53;5.53;;;4.07;;
24619;SDS011;12763;55.802;37.404;2023-07-13T14:10:20;7.07;;;3.97;;
24619;SDS011;12763;55.802;37.404;2023-07-13T14:12:47;7.88;;;4.15;;
24619;SDS011;12763;55.802;37.404;2023-07-13T14:15:22;6.45;;;3.97;;
24619;SDS011;12763;55.802;37.404;2023-07-13T14:17:51;5.72;;;4.10;;
24619;SDS011;12763;55.802;37.404;2023-07-13T14:20:18;10.10;;;4.65;;
24619;SDS011;12763;55.802;37.404;2023-07-13T14:22:47;8.80;;;4.03;;
24619;SDS011;12763;55.802;37.404;2023-07-13T14:25:14;11.32;;;4.53;;
24619;SDS011;12763;55.802;37.404;2023-07-13T14:27:42;9.95;;;4.53;;
24619;SDS011;12763;55.802;37.404;2023-07-13T14:30:12;8.48;;;4.45;;
24619;SDS011;12763;55.802;37.404;2023-07-13T14:32:43;9.93;;;5.13;;
24619;SDS011;12763;55.802;37.404;2023-07-13T14:35:13;9.48;;;4.57;;
24619;SDS011;12763;55.802;37.404;2023-07-13T14:37:40;8.80;;;4.68;;
24619;SDS011;12763;55.802;37.404;2023-07-13T14:42:39;15.50;;;5.60;;
24619;SDS011;12763;55.802;37.404;2023-07-13T14:45:05;7.88;;;4.63;;
24619;SDS011;12763;55.802;37.404;2023-07-13T14:47:37;12.93;;;4.90;;
24619;SDS011;12763;55.802;37.404;2023-07-13T14:50:03;17.45;;;4.82;;
24619;SDS011;12763;55.802;37.404;2023-07-13T14:52:30;13.70;;;5.38;;
24619;SDS011;12763;55.802;37.404;2023-07-13T14:54:56;12.93;;;5.70;;
24619;SDS011;12763;55.802;37.404;2023-07-13T14:57:22;8.75;;;4.95;;
24619;SDS011;12763;55.802;37.404;2023-07-13T14:59:48;11.93;;;5.32;;
24619;SDS011;12763;55.802;37.404;2023-07-13T15:02:18;10.15;;;4.70;;
24619;SDS011;12763;55.802;37.404;2023-07-13T15:04:52;13.55;;;5.30;;
24619;SDS011;12763;55.802;37.404;2023-07-13T15:07:18;10.48;;;4.50;;
24619;SDS011;12763;55.802;37.404;2023-07-13T15:09:46;5.65;;;4.07;;
24619;SDS011;12763;55.802;37.404;2023-07-13T15:12:13;6.97;;;4.00;;
24619;SDS011;12763;55.802;37.404;2023-07-13T15:14:39;9.80;;;4.20;;
24619;SDS011;12763;55.802;37.404;2023-07-13T15:17:08;6.93;;;4.10;;
24619;SDS011;12763;55.802;37.404;2023-07-13T15:22:56;8.57;;;4.82;;
24619;SDS011;12763;55.802;37.404;2023-07-13T15:25:23;9.23;;;4.38;;
24619;SDS011;12763;55.802;37.404;2023-07-13T15:27:51;8.60;;;4.53;;
24619;SDS011;12763;55.802;37.404;2023-07-13T15:30:17;8.73;;;3.70;;